createdAt,value
2022-12-17T00:00:47.551Z,14.89
2022-12-17T00:01:50.221Z,16.18
2022-12-17T00:02:52.880Z,14.49
2022-12-17T00:03:56.950Z,12.20
2022-12-17T00:04:59.775Z,12.82
2022-12-17T00:06:02.320Z,15.39
2022-12-17T00:07:05.017Z,13.51
2022-12-17T00:08:07.514Z,13.46
2022-12-17T00:09:09.947Z,14.71
2022-12-17T00:10:12.378Z,18.57
2022-12-17T00:11:14.908Z,20.00
2022-12-17T00:12:17.343Z,13.81
2022-12-17T00:13:19.819Z,14.10
2022-12-17T00:14:22.598Z,11.79
2022-12-17T00:15:25.136Z,11.84
2022-12-17T00:16:27.875Z,10.74
2022-12-17T00:17:30.393Z,10.86
2022-12-17T00:18:32.869Z,12.43
2022-12-17T00:19:35.391Z,10.87
2022-12-17T00:20:37.819Z,12.25
2022-12-17T00:21:40.248Z,14.83
2022-12-17T00:22:42.681Z,9.40
2022-12-17T00:23:45.408Z,11.79
2022-12-17T00:24:47.939Z,11.94
2022-12-17T00:25:50.368Z,12.17
2022-12-17T00:26:52.802Z,11.39
2022-12-17T00:27:55.337Z,12.16
2022-12-17T00:28:59.311Z,13.44
2022-12-17T00:30:01.761Z,11.99
2022-12-17T00:31:04.322Z,9.97
2022-12-17T00:32:06.822Z,11.37
2022-12-17T00:33:09.274Z,13.69
2022-12-17T00:34:12.665Z,13.23
2022-12-17T00:35:15.242Z,10.73
2022-12-17T00:36:17.679Z,13.66
2022-12-17T00:37:20.137Z,12.28
2022-12-17T00:38:22.648Z,9.77
2022-12-17T00:39:25.121Z,11.91
2022-12-17T00:40:27.646Z,13.27
2022-12-17T00:41:30.095Z,11.93
2022-12-17T00:42:32.752Z,10.72
2022-12-17T00:43:35.723Z,12.85
2022-12-17T00:44:38.792Z,10.68
2022-12-17T00:45:41.238Z,11.54
2022-12-17T00:46:43.794Z,10.27
2022-12-17T00:47:46.396Z,15.59
2022-12-17T00:48:48.825Z,9.96
2022-12-17T00:49:51.393Z,11.14
2022-12-17T00:50:55.039Z,9.48
2022-12-17T00:51:59.031Z,12.44
2022-12-17T00:53:01.554Z,12.27
2022-12-17T00:54:04.103Z,11.96
2022-12-17T00:55:06.698Z,10.15
2022-12-17T00:56:10.245Z,11.14
2022-12-17T00:57:12.681Z,10.39
2022-12-17T00:58:15.218Z,9.43
2022-12-17T00:59:17.753Z,10.02
2022-12-17T01:00:20.319Z,9.97
2022-12-17T01:01:22.854Z,11.62
2022-12-17T01:02:25.745Z,12.74
2022-12-17T01:03:28.637Z,12.26
2022-12-17T01:04:31.161Z,10.79
2022-12-17T01:05:33.631Z,10.79
2022-12-17T01:06:36.064Z,12.41
2022-12-17T01:07:38.497Z,10.77
2022-12-17T01:08:40.925Z,11.38
2022-12-17T01:09:43.378Z,11.93
2022-12-17T01:10:45.849Z,11.09
2022-12-17T01:11:48.283Z,13.86
2022-12-17T01:12:50.713Z,12.56
2022-12-17T01:13:53.248Z,12.69
2022-12-17T01:14:57.643Z,10.17
2022-12-17T01:16:00.222Z,12.77
2022-12-17T01:17:03.038Z,13.04
2022-12-17T01:18:05.479Z,11.79
2022-12-17T01:19:07.908Z,16.72
2022-12-17T01:20:10.450Z,17.47
2022-12-17T01:21:13.002Z,12.96
2022-12-17T01:22:15.641Z,15.07
2022-12-17T01:23:18.172Z,12.22
2022-12-17T01:24:20.617Z,14.51
2022-12-17T01:25:23.243Z,12.02
2022-12-17T01:26:25.726Z,12.10
2022-12-17T01:27:28.176Z,13.55
2022-12-17T01:28:30.838Z,11.64
2022-12-17T01:29:33.273Z,11.97
2022-12-17T01:30:35.831Z,9.17
2022-12-17T01:31:38.346Z,10.69
2022-12-17T01:32:40.846Z,11.12
2022-12-17T01:33:43.309Z,10.65
2022-12-17T01:34:45.846Z,9.43
2022-12-17T01:35:48.386Z,10.79
2022-12-17T01:36:50.965Z,12.50
2022-12-17T01:37:53.497Z,9.03
2022-12-17T01:38:56.082Z,11.15
2022-12-17T01:39:58.532Z,9.11
2022-12-17T01:41:00.963Z,11.26
2022-12-17T01:42:03.501Z,10.14
2022-12-17T01:43:06.029Z,10.50
2022-12-17T01:44:08.469Z,11.80
2022-12-17T01:45:11.096Z,9.84
2022-12-17T01:46:13.671Z,10.19
2022-12-17T01:47:16.537Z,11.46
2022-12-17T01:48:19.069Z,10.46
2022-12-17T01:49:21.500Z,8.39
2022-12-17T01:50:24.044Z,10.83
2022-12-17T01:51:26.639Z,12.32
2022-12-17T01:52:29.331Z,8.96
2022-12-17T01:53:31.867Z,7.68
2022-12-17T01:54:34.301Z,8.95
2022-12-17T01:55:36.838Z,8.23
2022-12-17T01:56:39.280Z,8.75
2022-12-17T01:57:41.746Z,8.99
2022-12-17T01:58:44.187Z,9.03
2022-12-17T01:59:46.916Z,9.83
2022-12-17T02:00:49.926Z,9.97
2022-12-17T02:01:52.747Z,8.30
2022-12-17T02:02:55.833Z,10.66
2022-12-17T02:03:58.675Z,9.99
2022-12-17T02:05:01.125Z,9.91
2022-12-17T02:06:03.659Z,10.01
2022-12-17T02:07:06.146Z,9.99
2022-12-17T02:08:08.884Z,8.94
2022-12-17T02:09:11.454Z,9.56
2022-12-17T02:10:13.966Z,8.19
2022-12-17T02:11:16.519Z,7.97
2022-12-17T02:12:19.028Z,7.57
2022-12-17T02:13:21.499Z,9.71
2022-12-17T02:14:24.044Z,8.16
2022-12-17T02:15:26.824Z,7.77
2022-12-17T02:16:29.348Z,8.52
2022-12-17T02:17:32.006Z,8.61
2022-12-17T02:18:34.495Z,6.55
2022-12-17T02:19:37.051Z,8.31
2022-12-17T02:20:39.482Z,7.84
2022-12-17T02:21:41.915Z,7.82
2022-12-17T02:22:44.351Z,9.87
2022-12-17T02:23:46.932Z,8.03
2022-12-17T02:24:49.380Z,6.71
2022-12-17T02:25:51.907Z,8.03
2022-12-17T02:26:54.439Z,7.39
2022-12-17T02:27:56.979Z,7.61
2022-12-17T02:28:59.481Z,7.57
2022-12-17T02:30:02.117Z,7.40
2022-12-17T02:31:04.552Z,5.70
2022-12-17T02:32:07.151Z,8.29
2022-12-17T02:33:09.860Z,8.83
2022-12-17T02:34:12.540Z,9.30
2022-12-17T02:35:15.038Z,8.54
2022-12-17T02:36:17.570Z,8.23
2022-12-17T02:37:20.153Z,7.71
2022-12-17T02:38:22.628Z,7.29
2022-12-17T02:39:25.206Z,8.20
2022-12-17T02:40:27.756Z,7.46
2022-12-17T02:41:30.184Z,8.20
2022-12-17T02:42:32.722Z,7.93
2022-12-17T02:43:35.558Z,7.61
2022-12-17T02:44:38.646Z,7.16
2022-12-17T02:45:41.144Z,6.71
2022-12-17T02:46:44.231Z,6.97
2022-12-17T02:47:46.674Z,8.82
2022-12-17T02:48:49.205Z,10.03
2022-12-17T02:49:51.708Z,10.15
2022-12-17T02:50:54.206Z,8.69
2022-12-17T02:51:56.746Z,7.97
2022-12-17T02:52:59.179Z,9.30
2022-12-17T02:54:01.640Z,11.13
2022-12-17T02:55:04.191Z,11.07
2022-12-17T02:56:06.755Z,9.65
2022-12-17T02:57:09.214Z,7.59
2022-12-17T02:58:11.754Z,9.50
2022-12-17T02:59:14.221Z,8.22
2022-12-17T03:00:16.690Z,7.65
2022-12-17T03:01:19.348Z,12.81
2022-12-17T03:02:22.244Z,7.96
2022-12-17T03:03:25.183Z,9.33
2022-12-17T03:04:27.779Z,13.93
2022-12-17T03:05:46.077Z,9.47
2022-12-17T03:06:34.628Z,11.00
2022-12-17T03:07:37.204Z,7.23
2022-12-17T03:08:39.857Z,14.46
2022-12-17T03:09:42.317Z,7.03
2022-12-17T03:10:44.932Z,8.56
2022-12-17T03:11:47.367Z,7.85
2022-12-17T03:12:49.796Z,11.05
2022-12-17T03:13:52.318Z,7.59
2022-12-17T03:14:54.848Z,9.63
2022-12-17T03:15:57.312Z,10.20
2022-12-17T03:16:59.826Z,9.01
2022-12-17T03:18:02.269Z,8.48
2022-12-17T03:19:04.738Z,12.55
2022-12-17T03:20:07.541Z,10.78
2022-12-17T03:21:10.100Z,6.67
2022-12-17T03:22:12.527Z,7.84
2022-12-17T03:23:14.990Z,8.62
2022-12-17T03:24:17.416Z,7.42
2022-12-17T03:25:19.860Z,9.03
2022-12-17T03:26:22.631Z,11.46
2022-12-17T03:27:25.061Z,9.59
2022-12-17T03:28:27.482Z,13.65
2022-12-17T03:29:29.918Z,9.24
2022-12-17T03:30:36.045Z,9.12
2022-12-17T03:31:37.603Z,12.95
2022-12-17T03:32:40.185Z,10.98
2022-12-17T03:33:42.753Z,12.40
2022-12-17T03:34:45.186Z,14.77
2022-12-17T03:35:47.619Z,10.03
2022-12-17T03:36:50.590Z,24.16
2022-12-17T03:37:53.122Z,13.57
2022-12-17T03:38:55.644Z,17.07
2022-12-17T03:39:58.072Z,13.21
2022-12-17T03:41:00.932Z,12.66
2022-12-17T03:42:03.496Z,16.73
2022-12-17T03:43:05.924Z,18.66
2022-12-17T03:44:08.362Z,18.49
2022-12-17T03:45:10.789Z,12.61
2022-12-17T03:46:13.315Z,17.49
2022-12-17T03:47:16.002Z,14.16
2022-12-17T03:48:18.427Z,11.51
2022-12-17T03:49:20.851Z,14.07
2022-12-17T03:50:23.285Z,17.75
2022-12-17T03:51:26.075Z,11.73
2022-12-17T03:52:28.573Z,26.26
2022-12-17T03:53:31.216Z,16.95
2022-12-17T03:54:33.777Z,13.59
2022-12-17T03:55:36.207Z,16.74
2022-12-17T03:56:38.756Z,17.14
2022-12-17T03:57:41.262Z,15.49
2022-12-17T03:58:43.786Z,20.13
2022-12-17T03:59:46.213Z,18.33
2022-12-17T04:00:48.891Z,14.71
2022-12-17T04:01:51.522Z,19.97
2022-12-17T04:02:54.406Z,11.43
2022-12-17T04:03:57.226Z,14.10
2022-12-17T04:04:59.812Z,22.07
2022-12-17T04:06:02.264Z,17.64
2022-12-17T04:07:04.791Z,17.85
2022-12-17T04:08:07.345Z,23.13
2022-12-17T04:09:09.872Z,23.97
2022-12-17T04:10:12.536Z,20.83
2022-12-17T04:11:14.963Z,25.34
2022-12-17T04:12:17.395Z,23.47
2022-12-17T04:13:19.961Z,17.67
2022-12-17T04:14:22.697Z,19.57
2022-12-17T04:15:25.179Z,19.81
2022-12-17T04:16:27.958Z,21.44
2022-12-17T04:17:30.388Z,28.36
2022-12-17T04:18:32.857Z,26.16
2022-12-17T04:19:35.368Z,24.46
2022-12-17T04:20:38.049Z,20.99
2022-12-17T04:21:40.567Z,21.10
2022-12-17T04:22:43.016Z,16.70
2022-12-17T04:23:45.521Z,29.59
2022-12-17T04:24:48.055Z,24.20
2022-12-17T04:25:50.683Z,25.31
2022-12-17T04:26:53.419Z,46.54
2022-12-17T04:27:57.788Z,22.45
2022-12-17T04:29:00.242Z,21.93
2022-12-17T04:30:02.675Z,25.79
2022-12-17T04:31:05.273Z,37.21
2022-12-17T04:32:07.938Z,26.93
2022-12-17T04:33:10.367Z,28.61
2022-12-17T04:34:13.054Z,29.29
2022-12-17T04:35:15.682Z,24.74
2022-12-17T04:36:18.316Z,23.79
2022-12-17T04:37:20.755Z,23.12
2022-12-17T04:38:23.303Z,22.78
2022-12-17T04:39:25.925Z,20.55
2022-12-17T04:40:28.411Z,24.01
2022-12-17T04:41:30.880Z,22.99
2022-12-17T04:42:33.381Z,103.93
2022-12-17T04:43:36.247Z,24.18
2022-12-17T04:44:39.147Z,24.43
2022-12-17T04:45:41.585Z,20.46
2022-12-17T04:46:44.197Z,24.91
2022-12-17T04:47:46.739Z,20.60
2022-12-17T04:48:49.164Z,21.87
2022-12-17T04:49:51.621Z,18.79
2022-12-17T04:50:54.153Z,22.71
2022-12-17T04:51:56.578Z,24.15
2022-12-17T04:52:59.013Z,24.23
2022-12-17T04:54:01.461Z,12.97
2022-12-17T04:55:04.017Z,18.02
2022-12-17T04:56:06.547Z,20.01
2022-12-17T04:57:09.010Z,22.45
2022-12-17T04:58:11.834Z,21.57
2022-12-17T04:59:14.268Z,26.31
2022-12-17T05:00:16.735Z,19.71
2022-12-17T05:01:19.267Z,23.14
2022-12-17T05:02:22.036Z,20.33
2022-12-17T05:03:24.807Z,17.65
2022-12-17T05:04:27.599Z,17.02
2022-12-17T05:05:30.100Z,11.70
2022-12-17T05:06:32.626Z,11.49
2022-12-17T05:07:35.059Z,15.59
2022-12-17T05:08:41.354Z,15.96
2022-12-17T05:09:41.892Z,15.43
2022-12-17T05:10:44.452Z,15.71
2022-12-17T05:11:46.883Z,11.22
2022-12-17T05:12:49.308Z,15.70
2022-12-17T05:13:51.732Z,19.63
2022-12-17T05:14:54.172Z,18.54
2022-12-17T05:15:56.987Z,21.36
2022-12-17T05:16:59.674Z,17.53
2022-12-17T05:18:02.108Z,31.79
2022-12-17T05:19:04.638Z,18.63
2022-12-17T05:20:07.372Z,18.50
2022-12-17T05:21:09.838Z,26.69
2022-12-17T05:22:12.370Z,19.57
2022-12-17T05:23:14.834Z,17.17
2022-12-17T05:24:17.315Z,26.29
2022-12-17T05:25:19.762Z,17.79
2022-12-17T05:26:22.238Z,15.03
2022-12-17T05:27:24.672Z,17.21
2022-12-17T05:28:27.106Z,17.45
2022-12-17T05:29:29.639Z,15.37
2022-12-17T05:30:32.089Z,19.63
2022-12-17T05:31:34.694Z,19.61
2022-12-17T05:32:37.269Z,15.56
2022-12-17T05:33:39.910Z,14.89
2022-12-17T05:34:42.645Z,17.35
2022-12-17T05:35:45.075Z,16.87
2022-12-17T05:36:47.537Z,15.87
2022-12-17T05:37:50.346Z,18.22
2022-12-17T05:38:52.875Z,13.37
2022-12-17T05:39:55.316Z,17.43
2022-12-17T05:40:58.023Z,31.82
2022-12-17T05:42:00.587Z,17.12
2022-12-17T05:43:03.018Z,19.47
2022-12-17T05:44:05.448Z,21.55
2022-12-17T05:45:07.894Z,16.53
2022-12-17T05:46:10.398Z,41.39
2022-12-17T05:47:13.335Z,23.44
2022-12-17T05:48:15.897Z,26.82
2022-12-17T05:49:18.401Z,26.35
2022-12-17T05:50:20.956Z,32.56
2022-12-17T05:51:23.397Z,30.85
2022-12-17T05:52:25.968Z,35.42
2022-12-17T05:53:28.500Z,36.92
2022-12-17T05:54:30.944Z,36.32
2022-12-17T05:55:33.400Z,37.77
2022-12-17T05:56:35.829Z,49.61
2022-12-17T05:57:38.344Z,45.07
2022-12-17T05:58:40.778Z,51.32
2022-12-17T05:59:43.216Z,63.91
2022-12-17T06:00:46.176Z,45.03
2022-12-17T06:01:48.724Z,55.64
2022-12-17T06:02:51.458Z,45.01
2022-12-17T06:03:54.471Z,51.41
2022-12-17T06:05:01.915Z,39.33
2022-12-17T06:06:01.613Z,37.51
2022-12-17T06:07:04.050Z,39.30
2022-12-17T06:08:06.524Z,34.09
2022-12-17T06:09:09.058Z,40.86
2022-12-17T06:10:11.826Z,33.40
2022-12-17T06:11:14.333Z,35.23
2022-12-17T06:12:16.886Z,25.49
2022-12-17T06:13:19.356Z,30.06
2022-12-17T06:14:21.889Z,33.27
2022-12-17T06:15:24.324Z,25.63
2022-12-17T06:16:27.125Z,24.24
2022-12-17T06:17:29.761Z,31.77
2022-12-17T06:18:32.233Z,26.45
2022-12-17T06:19:34.792Z,26.97
2022-12-17T06:20:37.222Z,30.93
2022-12-17T06:21:39.682Z,24.57
2022-12-17T06:22:42.247Z,27.78
2022-12-17T06:23:44.784Z,35.11
2022-12-17T06:24:47.291Z,27.55
2022-12-17T06:25:49.979Z,44.57
2022-12-17T06:26:53.046Z,40.63
2022-12-17T06:27:55.588Z,27.41
2022-12-17T06:28:58.978Z,27.60
2022-12-17T06:30:01.923Z,27.37
2022-12-17T06:31:04.450Z,28.94
2022-12-17T06:32:07.017Z,36.62
2022-12-17T06:33:09.539Z,43.54
2022-12-17T06:34:12.149Z,28.35
2022-12-17T06:35:14.593Z,35.05
2022-12-17T06:36:22.045Z,63.56
2022-12-17T06:37:21.442Z,29.15
2022-12-17T06:38:23.991Z,42.66
2022-12-17T06:39:26.630Z,40.88
2022-12-17T06:40:29.220Z,37.80
2022-12-17T06:41:31.770Z,43.55
2022-12-17T06:42:34.314Z,39.02
2022-12-17T06:43:37.121Z,31.01
2022-12-17T06:44:39.950Z,37.33
2022-12-17T06:45:42.485Z,30.15
2022-12-17T06:46:45.066Z,33.98
2022-12-17T06:47:47.580Z,37.24
2022-12-17T06:48:50.127Z,31.43
2022-12-17T06:49:57.957Z,30.91
2022-12-17T06:50:57.512Z,29.44
2022-12-17T06:51:59.957Z,28.89
2022-12-17T06:53:02.566Z,34.76
2022-12-17T06:54:05.135Z,26.26
2022-12-17T06:55:07.720Z,35.45
2022-12-17T06:56:10.477Z,22.75
2022-12-17T06:57:12.908Z,27.03
2022-12-17T06:58:15.349Z,37.40
2022-12-17T06:59:17.781Z,24.54
2022-12-17T07:00:20.584Z,26.69
2022-12-17T07:01:23.334Z,24.16
2022-12-17T07:02:26.050Z,29.59
2022-12-17T07:03:28.900Z,29.13
2022-12-17T07:04:31.599Z,21.92
2022-12-17T07:05:34.262Z,24.53
2022-12-17T07:06:41.262Z,27.91
2022-12-17T07:07:43.805Z,25.06
2022-12-17T07:08:46.240Z,26.17
2022-12-17T07:09:48.708Z,18.07
2022-12-17T07:10:51.621Z,21.68
2022-12-17T07:11:55.129Z,26.61
2022-12-17T07:12:57.810Z,14.64
2022-12-17T07:14:00.364Z,21.13
2022-12-17T07:15:02.811Z,21.34
2022-12-17T07:16:05.509Z,16.68
2022-12-17T07:17:08.009Z,24.60
2022-12-17T07:18:10.833Z,18.65
2022-12-17T07:19:15.499Z,21.96
2022-12-17T07:20:18.047Z,18.05
2022-12-17T07:21:20.702Z,24.31
2022-12-17T07:22:24.962Z,17.90
2022-12-17T07:23:27.395Z,20.78
2022-12-17T07:24:29.892Z,25.78
2022-12-17T07:25:32.391Z,17.77
2022-12-17T07:26:34.966Z,17.66
2022-12-17T07:27:37.472Z,18.57
2022-12-17T07:28:40.007Z,26.37
2022-12-17T07:29:42.542Z,18.76
2022-12-17T07:30:45.559Z,27.27
2022-12-17T07:31:48.459Z,20.97
2022-12-17T07:32:51.332Z,25.59
2022-12-17T07:33:55.246Z,22.48
2022-12-17T07:34:59.590Z,20.03
2022-12-17T07:36:02.028Z,21.53
2022-12-17T07:37:04.612Z,24.29
2022-12-17T07:38:07.078Z,22.11
2022-12-17T07:39:09.592Z,19.04
2022-12-17T07:40:12.125Z,19.47
2022-12-17T07:41:14.554Z,20.03
2022-12-17T07:42:17.233Z,22.39
2022-12-17T07:43:19.669Z,28.57
2022-12-17T07:44:22.103Z,33.68
2022-12-17T07:45:24.577Z,78.11
2022-12-17T07:46:27.509Z,37.21
2022-12-17T07:47:30.067Z,72.64
2022-12-17T07:48:32.632Z,218.89
2022-12-17T07:49:35.128Z,268.69
2022-12-17T07:50:37.562Z,128.07
2022-12-17T07:51:39.989Z,211.14
2022-12-17T07:52:42.466Z,297.55
2022-12-17T07:53:44.896Z,219.53
2022-12-17T07:54:47.323Z,140.58
2022-12-17T07:55:49.907Z,244.38
2022-12-17T07:56:52.640Z,160.71
2022-12-17T07:57:55.124Z,147.91
2022-12-17T07:58:57.901Z,79.47
2022-12-17T08:00:00.330Z,34.54
2022-12-17T08:01:02.817Z,26.37
2022-12-17T08:02:05.543Z,16.89
2022-12-17T08:03:08.614Z,22.56
2022-12-17T08:04:11.404Z,20.30
2022-12-17T08:05:13.924Z,24.58
2022-12-17T08:06:16.354Z,22.18
2022-12-17T08:07:18.789Z,21.13
2022-12-17T08:08:21.261Z,31.06
2022-12-17T08:09:23.691Z,22.10
2022-12-17T08:10:26.218Z,25.91
2022-12-17T08:11:28.645Z,42.65
2022-12-17T08:12:31.369Z,22.32
2022-12-17T08:13:34.065Z,26.35
2022-12-17T08:14:36.781Z,29.11
2022-12-17T08:15:39.212Z,30.77
2022-12-17T08:16:42.290Z,37.28
2022-12-17T08:17:44.930Z,29.54
2022-12-17T08:18:47.513Z,32.35
2022-12-17T08:19:49.943Z,42.38
2022-12-17T08:20:52.377Z,36.11
2022-12-17T08:21:54.815Z,44.43
2022-12-17T08:22:57.239Z,43.67
2022-12-17T08:23:59.713Z,50.97
2022-12-17T08:25:02.269Z,50.11
2022-12-17T08:26:04.793Z,46.29
2022-12-17T08:27:07.323Z,53.81
2022-12-17T08:28:15.725Z,62.94
2022-12-17T08:29:14.306Z,49.38
2022-12-17T08:30:17.150Z,43.29
2022-12-17T08:31:19.666Z,42.84
2022-12-17T08:32:22.208Z,41.60
2022-12-17T08:33:24.643Z,44.98
2022-12-17T08:34:27.105Z,46.09
2022-12-17T08:35:29.653Z,43.47
2022-12-17T08:36:32.096Z,51.70
2022-12-17T08:37:34.658Z,45.80
2022-12-17T08:38:37.092Z,40.70
2022-12-17T08:39:39.706Z,41.17
2022-12-17T08:40:42.485Z,48.15
2022-12-17T08:41:48.488Z,44.29
2022-12-17T08:42:49.361Z,60.42
2022-12-17T08:43:51.802Z,55.77
2022-12-17T08:44:54.597Z,44.13
2022-12-17T08:45:59.001Z,53.63
2022-12-17T08:47:01.678Z,40.66
2022-12-17T08:48:04.478Z,40.49
2022-12-17T08:49:07.081Z,39.75
2022-12-17T08:50:10.572Z,37.95
2022-12-17T08:51:13.102Z,35.47
2022-12-17T08:52:15.527Z,40.45
2022-12-17T08:53:17.959Z,38.85
2022-12-17T08:54:20.388Z,30.88
2022-12-17T08:55:23.000Z,30.82
2022-12-17T08:56:25.996Z,35.71
2022-12-17T08:57:31.777Z,24.58
2022-12-17T08:58:32.777Z,45.08
2022-12-17T08:59:36.008Z,40.32
2022-12-17T09:00:38.598Z,31.49
2022-12-17T09:01:41.169Z,25.19
2022-12-17T09:02:44.171Z,21.05
2022-12-17T09:03:46.979Z,18.98
2022-12-17T09:04:49.567Z,19.79
2022-12-17T09:05:52.293Z,22.03
2022-12-17T09:06:55.276Z,25.06
2022-12-17T09:07:57.764Z,22.83
2022-12-17T09:09:00.223Z,24.53
2022-12-17T09:10:02.651Z,26.11
2022-12-17T09:11:05.121Z,17.71
2022-12-17T09:12:07.551Z,19.51
2022-12-17T09:13:09.980Z,21.66
2022-12-17T09:14:12.412Z,25.99
2022-12-17T09:15:15.083Z,25.01
2022-12-17T09:16:17.705Z,23.38
2022-12-17T09:17:20.181Z,29.71
2022-12-17T09:18:22.608Z,23.19
2022-12-17T09:19:25.143Z,26.27
2022-12-17T09:20:29.486Z,26.01
2022-12-17T09:21:32.135Z,20.05
2022-12-17T09:22:34.560Z,22.65
2022-12-17T09:23:37.426Z,19.58
2022-12-17T09:24:40.246Z,22.79
2022-12-17T09:25:42.705Z,18.72
2022-12-17T09:26:45.264Z,29.47
2022-12-17T09:27:47.696Z,17.69
2022-12-17T09:28:50.226Z,19.13
2022-12-17T09:29:52.665Z,26.24
2022-12-17T09:30:55.217Z,23.61
2022-12-17T09:31:58.107Z,32.17
2022-12-17T09:33:00.534Z,28.55
2022-12-17T09:34:02.982Z,27.39
2022-12-17T09:35:05.511Z,24.70
2022-12-17T09:36:08.039Z,27.53
2022-12-17T09:37:10.493Z,26.00
2022-12-17T09:38:12.918Z,27.64
2022-12-17T09:39:15.479Z,31.97
2022-12-17T09:40:18.074Z,34.96
2022-12-17T09:41:20.531Z,30.37
2022-12-17T09:42:23.009Z,19.05
2022-12-17T09:43:25.532Z,21.73
2022-12-17T09:44:27.967Z,28.21
2022-12-17T09:45:30.905Z,25.24
2022-12-17T09:46:33.704Z,28.39
2022-12-17T09:47:36.583Z,26.86
2022-12-17T09:48:39.150Z,17.53
2022-12-17T09:49:41.595Z,30.17
2022-12-17T09:50:44.124Z,46.71
2022-12-17T09:51:46.666Z,23.22
2022-12-17T09:52:49.220Z,24.83
2022-12-17T09:53:51.658Z,26.51
2022-12-17T09:54:59.418Z,62.66
2022-12-17T09:55:58.443Z,40.08
2022-12-17T09:57:00.988Z,25.89
2022-12-17T09:58:03.570Z,22.13
2022-12-17T09:59:06.105Z,17.67
2022-12-17T10:00:09.484Z,32.58
2022-12-17T10:01:12.133Z,16.80
2022-12-17T10:02:14.965Z,15.43
2022-12-17T10:03:17.905Z,14.71
2022-12-17T10:04:20.576Z,15.59
2022-12-17T10:05:23.152Z,14.53
2022-12-17T10:06:26.033Z,13.02
2022-12-17T10:07:28.540Z,20.50
2022-12-17T10:08:31.032Z,11.14
2022-12-17T10:09:33.487Z,11.36
2022-12-17T10:10:36.718Z,11.87
2022-12-17T10:11:39.186Z,12.47
2022-12-17T10:12:41.729Z,9.66
2022-12-17T10:13:44.625Z,9.59
2022-12-17T10:14:47.063Z,7.15
2022-12-17T10:15:49.703Z,9.21
2022-12-17T10:16:52.342Z,8.79
2022-12-17T10:17:54.786Z,12.77
2022-12-17T10:18:58.168Z,16.07
2022-12-17T10:20:00.606Z,17.76
2022-12-17T10:21:03.043Z,12.15
2022-12-17T10:22:05.629Z,13.99
2022-12-17T10:23:08.186Z,12.11
2022-12-17T10:24:15.463Z,13.97
2022-12-17T10:25:15.113Z,12.89
2022-12-17T10:26:17.775Z,13.53
2022-12-17T10:27:20.231Z,12.45
2022-12-17T10:28:22.665Z,12.08
2022-12-17T10:29:25.242Z,15.27
2022-12-17T10:30:27.813Z,9.67
2022-12-17T10:31:30.460Z,10.13
2022-12-17T10:32:33.188Z,12.91
2022-12-17T10:33:36.123Z,11.14
2022-12-17T10:34:39.111Z,9.20
2022-12-17T10:35:41.692Z,10.50
2022-12-17T10:36:44.429Z,13.83
2022-12-17T10:37:46.865Z,13.96
2022-12-17T10:38:49.301Z,11.92
2022-12-17T10:39:51.760Z,17.25
2022-12-17T10:40:54.189Z,15.89
2022-12-17T10:41:56.632Z,14.93
2022-12-17T10:42:59.058Z,18.63
2022-12-17T10:44:01.499Z,18.32
2022-12-17T10:45:04.000Z,14.26
2022-12-17T10:46:06.688Z,18.63
2022-12-17T10:47:09.289Z,14.59
2022-12-17T10:48:11.831Z,17.04
2022-12-17T10:49:14.362Z,13.65
2022-12-17T10:50:16.821Z,17.68
2022-12-17T10:51:19.255Z,23.75
2022-12-17T10:52:21.687Z,24.69
2022-12-17T10:53:24.248Z,19.99
2022-12-17T10:54:26.680Z,31.39
2022-12-17T10:55:29.141Z,20.15
2022-12-17T10:56:31.569Z,17.77
2022-12-17T10:57:34.123Z,20.41
2022-12-17T10:58:36.556Z,29.92
2022-12-17T10:59:38.990Z,39.78
2022-12-17T11:00:45.829Z,28.15
2022-12-17T11:01:45.910Z,34.83
2022-12-17T11:02:48.947Z,38.44
2022-12-17T11:03:51.693Z,34.95
2022-12-17T11:04:54.294Z,33.97
2022-12-17T11:05:59.820Z,31.51
2022-12-17T11:07:01.212Z,27.90
2022-12-17T11:08:03.652Z,38.77
2022-12-17T11:09:06.181Z,36.38
2022-12-17T11:10:10.050Z,48.74
2022-12-17T11:11:12.902Z,83.31
2022-12-17T11:12:15.423Z,97.11
2022-12-17T11:13:17.941Z,138.03
2022-12-17T11:14:20.390Z,62.99
2022-12-17T11:15:22.988Z,79.23
2022-12-17T11:16:25.625Z,65.38
2022-12-17T11:17:28.233Z,114.39
2022-12-17T11:18:30.672Z,108.20
2022-12-17T11:19:33.118Z,137.49
2022-12-17T11:20:35.953Z,96.60
2022-12-17T11:21:38.459Z,119.65
2022-12-17T11:22:40.895Z,114.14
2022-12-17T11:23:43.450Z,95.90
2022-12-17T11:24:45.983Z,140.57
2022-12-17T11:25:48.622Z,114.70
2022-12-17T11:26:51.097Z,142.83
2022-12-17T11:27:53.547Z,182.01
2022-12-17T11:28:56.001Z,209.77
2022-12-17T11:29:58.530Z,157.63
2022-12-17T11:31:01.113Z,134.99
2022-12-17T11:32:03.630Z,165.15
2022-12-17T11:33:06.178Z,190.96
2022-12-17T11:34:08.711Z,116.23
2022-12-17T11:35:11.146Z,158.02
2022-12-17T11:36:13.580Z,225.79
2022-12-17T11:37:16.061Z,206.48
2022-12-17T11:38:18.587Z,155.96
2022-12-17T11:39:21.135Z,174.99
2022-12-17T11:40:24.779Z,148.56
2022-12-17T11:41:27.267Z,159.26
2022-12-17T11:42:29.857Z,311.69
2022-12-17T11:43:32.284Z,185.03
2022-12-17T11:44:34.716Z,156.30
2022-12-17T11:45:37.147Z,143.51
2022-12-17T11:46:39.664Z,81.93
2022-12-17T11:47:42.568Z,142.15
2022-12-17T11:48:45.090Z,114.69
2022-12-17T11:49:47.625Z,146.97
2022-12-17T11:50:50.061Z,170.81
2022-12-17T11:51:52.496Z,172.12
2022-12-17T11:52:55.009Z,192.93
2022-12-17T11:53:57.446Z,177.05
2022-12-17T11:54:59.881Z,163.13
2022-12-17T11:56:02.321Z,171.80
2022-12-17T11:57:04.782Z,234.25
2022-12-17T11:58:07.345Z,233.11
2022-12-17T11:59:09.819Z,183.17
2022-12-17T12:00:12.398Z,191.95
2022-12-17T12:01:15.129Z,180.63
2022-12-17T12:02:17.663Z,145.83
2022-12-17T12:03:20.424Z,169.03
2022-12-17T12:04:23.375Z,135.38
2022-12-17T12:05:26.051Z,111.71
2022-12-17T12:06:28.785Z,119.60
2022-12-17T12:07:31.211Z,121.15
2022-12-17T12:08:33.780Z,114.53
2022-12-17T12:09:36.443Z,123.46
2022-12-17T12:10:38.918Z,109.09
2022-12-17T12:11:41.364Z,74.91
2022-12-17T12:12:43.792Z,137.92
2022-12-17T12:13:46.251Z,96.36
2022-12-17T12:14:48.683Z,97.95
2022-12-17T12:15:51.160Z,101.69
2022-12-17T12:16:54.417Z,74.21
2022-12-17T12:17:56.887Z,91.39
2022-12-17T12:18:59.478Z,70.03
2022-12-17T12:20:02.184Z,67.23
2022-12-17T12:21:04.614Z,92.50
2022-12-17T12:22:07.051Z,88.12
2022-12-17T12:23:09.509Z,95.73
2022-12-17T12:24:12.346Z,130.71
2022-12-17T12:25:14.794Z,111.22
2022-12-17T12:26:17.645Z,127.65
2022-12-17T12:27:20.180Z,169.09
2022-12-17T12:28:22.634Z,186.97
2022-12-17T12:29:25.230Z,132.62
2022-12-17T12:30:27.982Z,148.79
2022-12-17T12:31:30.563Z,95.45
2022-12-17T12:32:33.470Z,156.59
2022-12-17T12:33:36.016Z,138.72
2022-12-17T12:34:38.552Z,140.89
2022-12-17T12:35:41.084Z,170.47
2022-12-17T12:36:44.023Z,92.09
2022-12-17T12:37:46.557Z,104.35
2022-12-17T12:38:49.462Z,116.80
2022-12-17T12:39:52.423Z,102.96
2022-12-17T12:40:54.951Z,102.07
2022-12-17T12:41:57.388Z,83.13
2022-12-17T12:42:59.918Z,124.56
2022-12-17T12:44:02.723Z,124.09
2022-12-17T12:45:05.278Z,109.53
2022-12-17T12:46:08.021Z,62.44
2022-12-17T12:47:10.715Z,106.37
2022-12-17T12:48:13.658Z,63.88
2022-12-17T12:49:16.106Z,62.87
2022-12-17T12:50:18.702Z,95.09
2022-12-17T12:51:21.276Z,87.13
2022-12-17T12:52:23.707Z,64.07
2022-12-17T12:53:26.158Z,54.71
2022-12-17T12:54:28.690Z,71.78
2022-12-17T12:55:31.180Z,70.45
2022-12-17T12:56:33.698Z,114.18
2022-12-17T12:57:36.135Z,37.15
2022-12-17T12:58:39.004Z,48.55
2022-12-17T12:59:41.849Z,35.76
2022-12-17T13:00:44.563Z,41.82
2022-12-17T13:01:47.354Z,34.59
2022-12-17T13:02:50.348Z,33.86
2022-12-17T13:03:53.067Z,21.50
2022-12-17T13:04:55.509Z,29.90
2022-12-17T13:05:58.085Z,27.18
2022-12-17T13:07:00.829Z,34.73
2022-12-17T13:08:03.275Z,31.48
2022-12-17T13:09:05.831Z,26.93
2022-12-17T13:10:08.527Z,21.21
2022-12-17T13:11:11.251Z,33.48
2022-12-17T13:12:13.791Z,33.15
2022-12-17T13:13:16.221Z,26.73
2022-12-17T13:14:18.665Z,45.13
2022-12-17T13:15:21.214Z,68.38
2022-12-17T13:16:24.015Z,35.29
2022-12-17T13:17:26.573Z,41.04
2022-12-17T13:18:29.019Z,62.56
2022-12-17T13:19:31.586Z,71.51
2022-12-17T13:20:34.243Z,47.75
2022-12-17T13:21:36.814Z,48.47
2022-12-17T13:22:39.253Z,67.87
2022-12-17T13:23:41.683Z,80.71
2022-12-17T13:24:44.134Z,85.64
2022-12-17T13:25:46.601Z,67.01
2022-12-17T13:26:49.424Z,129.15
2022-12-17T13:27:51.867Z,115.85